Time;durP1;ratioP1;P1;durP2;ratioP2;P2;SDS_P1;SDS_P2;PMS_P1;PMS_P2;Temp;Humidity;BMP_temperature;BMP_pressure;BME280_temperature;BME280_humidity;BME280_pressure;Samples;Min_cycle;Max_cycle;Signal;HPM_P1;HPM_P2
2023/01/01 00:01:59;;;;;;;39.60;26.83;;;13.10;99.90;;;;;;5070148;28;20044;-68
2023/01/01 00:04:25;;;;;;;47.63;29.92;;;13.10;99.90;;;;;;5070053;28;20072;-68
2023/01/01 00:06:51;;;;;;;69.32;45.33;;;13.10;99.90;;;;;;5069806;28;20032;-68
2023/01/01 00:12:01;;;;;;;43.80;26.17;;;13.00;99.90;;;;;;5069073;28;20091;-68
2023/01/01 00:14:27;;;;;;;40.45;28.42;;;13.00;99.90;;;;;;5069806;28;20068;-68
2023/01/01 00:16:55;;;;;;;35.92;25.30;;;13.00;99.90;;;;;;5053130;28;20047;-68
2023/01/01 00:19:21;;;;;;;35.90;25.23;;;13.00;99.90;;;;;;5069593;28;20041;-68
2023/01/01 00:21:47;;;;;;;38.50;25.00;;;12.90;99.90;;;;;;5069605;28;20040;-68
2023/01/01 00:24:12;;;;;;;32.60;20.33;;;12.90;99.90;;;;;;5069688;28;20044;-68
2023/01/01 00:26:38;;;;;;;25.70;18.20;;;12.90;99.90;;;;;;5069790;28;20468;-67
2023/01/01 00:29:04;;;;;;;40.95;23.27;;;12.90;99.90;;;;;;5070037;28;20040;-68
2023/01/01 00:31:30;;;;;;;27.90;18.15;;;12.80;99.90;;;;;;5066089;28;20040;-68
2023/01/01 00:33:56;;;;;;;33.80;19.98;;;12.80;99.90;;;;;;5052467;28;20391;-68
2023/01/01 00:36:25;;;;;;;33.95;17.77;;;12.80;99.90;;;;;;5069239;28;20044;-68
2023/01/01 00:38:51;;;;;;;29.88;16.35;;;12.80;99.90;;;;;;5068981;28;20423;-68
2023/01/01 00:41:17;;;;;;;39.88;22.30;;;12.90;99.90;;;;;;5069120;28;20666;-68
2023/01/01 00:43:44;;;;;;;68.05;36.45;;;12.90;99.90;;;;;;5068906;28;20036;-69
2023/01/01 00:46:10;;;;;;;31.48;18.65;;;12.90;99.90;;;;;;5069007;28;20032;-68
2023/01/01 00:48:36;;;;;;;30.67;16.30;;;13.00;99.90;;;;;;5068944;28;20048;-68
2023/01/01 00:51:02;;;;;;;29.88;18.90;;;13.10;99.90;;;;;;5068793;28;20044;-68
2023/01/01 00:53:28;;;;;;;25.85;16.08;;;13.10;99.90;;;;;;5068916;28;20043;-68
2023/01/01 00:55:55;;;;;;;23.95;15.40;;;13.00;99.90;;;;;;5069217;28;20033;-69
2023/01/01 00:58:22;;;;;;;26.20;16.42;;;13.00;99.90;;;;;;5069185;28;20105;-68
2023/01/01 01:00:48;;;;;;;29.27;17.33;;;13.10;99.90;;;;;;5068707;28;20617;-68
2023/01/01 01:03:27;;;;;;;28.98;17.30;;;13.10;99.90;;;;;;5068970;28;20055;-68
2023/01/01 01:06:01;;;;;;;25.95;16.80;;;13.10;99.90;;;;;;5069088;28;20041;-68
2023/01/01 01:08:29;;;;;;;31.58;16.90;;;13.20;99.90;;;;;;5052407;28;20078;-68
2023/01/01 01:11:02;;;;;;;31.02;17.67;;;13.20;99.90;;;;;;5069103;28;20041;-67
2023/01/01 01:13:28;;;;;;;31.35;18.15;;;13.20;99.90;;;;;;5052873;28;20049;-68
2023/01/01 01:15:53;;;;;;;30.77;17.15;;;13.30;99.90;;;;;;5068976;28;20040;-68
2023/01/01 01:18:19;;;;;;;33.72;19.63;;;13.30;99.90;;;;;;5069264;28;20037;-68
2023/01/01 01:20:50;;;;;;;34.88;19.45;;;13.30;99.90;;;;;;5069338;28;20418;-68
2023/01/01 01:23:15;;;;;;;30.58;17.63;;;13.30;99.90;;;;;;5071820;28;20402;-68
2023/01/01 01:25:41;;;;;;;28.77;17.67;;;13.30;99.90;;;;;;5073355;28;20055;-67
2023/01/01 01:28:06;;;;;;;25.63;16.20;;;13.30;99.90;;;;;;5072931;28;20052;-68
2023/01/01 01:30:32;;;;;;;29.98;18.85;;;13.30;99.90;;;;;;5072874;28;20048;-68
2023/01/01 01:32:58;;;;;;;33.75;20.20;;;13.30;99.90;;;;;;5072710;28;20036;-68
2023/01/01 01:35:23;;;;;;;23.33;16.00;;;13.30;99.90;;;;;;5072702;28;20033;-69
2023/01/01 01:37:49;;;;;;;28.38;16.52;;;13.20;99.90;;;;;;5056154;28;20105;-68
2023/01/01 01:40:17;;;;;;;29.60;17.20;;;13.20;99.90;;;;;;5072273;28;20064;-68
2023/01/01 01:42:47;;;;;;;29.05;17.13;;;13.20;99.90;;;;;;5072236;28;20047;-68
2023/01/01 01:45:14;;;;;;;27.85;16.20;;;13.20;99.90;;;;;;5072097;28;20197;-69
2023/01/01 01:47:49;;;;;;;31.05;16.25;;;13.20;99.90;;;;;;5072672;28;20111;-68
2023/01/01 01:50:27;;;;;;;33.28;17.63;;;13.20;99.90;;;;;;5072068;28;20062;-68
2023/01/01 01:53:09;;;;;;;33.38;18.60;;;13.20;99.90;;;;;;5072458;28;20090;-68
2023/01/01 01:55:36;;;;;;;;;;;13.20;99.90;;;;;;5073004;28;20041;-69
2023/01/01 01:58:03;;;;;;;26.75;16.05;;;13.10;99.90;;;;;;5055592;28;19920;-68
2023/01/01 02:00:29;;;;;;;22.02;13.10;;;13.20;99.90;;;;;;5073632;28;20044;-68
2023/01/01 02:03:08;;;;;;;27.35;13.77;;;13.20;99.90;;;;;;5072373;28;20037;-68
2023/01/01 02:05:35;;;;;;;18.75;11.55;;;13.20;99.90;;;;;;5072223;28;20090;-68
2023/01/01 02:08:03;;;;;;;32.83;17.80;;;13.20;99.90;;;;;;5072446;28;20048;-68
2023/01/01 02:10:29;;;;;;;30.75;13.35;;;13.10;99.90;;;;;;5072105;28;20040;-68
2023/01/01 02:12:55;;;;;;;20.73;11.50;;;13.10;99.90;;;;;;5072449;28;20075;-69
2023/01/01 02:15:27;;;;;;;22.38;12.32;;;13.10;99.90;;;;;;5071887;28;20032;-68
2023/01/01 02:18:01;;;;;;;25.60;11.32;;;13.20;99.90;;;;;;5071956;28;20044;-69
2023/01/01 02:20:50;;;;;;;29.05;16.90;;;13.10;99.90;;;;;;5071883;28;20543;-68
2023/01/01 02:23:21;;;;;;;20.63;10.65;;;13.20;99.90;;;;;;5067090;28;20048;-68
2023/01/01 02:26:24;;;;;;;21.13;10.77;;;13.20;99.90;;;;;;5071816;28;20127;-69
2023/01/01 02:29:05;;;;;;;21.55;9.75;;;13.10;99.90;;;;;;5071753;28;20044;-68
2023/01/01 02:31:36;;;;;;;14.18;7.85;;;13.10;99.90;;;;;;5071404;28;20044;-68
2023/01/01 02:34:06;;;;;;;19.33;10.73;;;13.20;99.90;;;;;;5070872;28;20136;-68
2023/01/01 02:36:37;;;;;;;21.20;8.95;;;13.20;99.90;;;;;;5054670;28;20127;-69
2023/01/01 02:39:06;;;;;;;23.05;9.85;;;13.10;99.90;;;;;;5071340;28;20036;-68
2023/01/01 02:41:39;;;;;;;22.60;9.35;;;13.10;99.90;;;;;;5071147;28;20041;-68
2023/01/01 02:44:05;;;;;;;16.05;8.20;;;13.10;99.90;;;;;;5071347;28;20086;-68
2023/01/01 02:46:32;;;;;;;18.27;8.45;;;13.10;99.90;;;;;;5072268;28;20041;-69
2023/01/01 02:48:58;;;;;;;19.40;7.90;;;13.10;99.90;;;;;;5071560;28;20029;-69
2023/01/01 02:51:36;;;;;;;20.02;8.18;;;13.10;99.90;;;;;;5070541;28;20135;-68
2023/01/01 02:54:07;;;;;;;20.42;6.97;;;13.10;99.90;;;;;;5070632;28;20047;-68
2023/01/01 02:57:03;;;;;;;14.17;5.67;;;13.20;99.90;;;;;;5071277;28;20036;-68
2023/01/01 03:02:52;;;;;;;11.43;4.50;;;13.30;99.90;;;;;;5071315;28;20043;-68
2023/01/01 03:05:36;;;;;;;15.73;4.25;;;13.40;99.90;;;;;;5071110;28;20111;-69
2023/01/01 03:08:20;;;;;;;10.20;3.90;;;13.50;99.90;;;;;;5054453;28;20043;-68
2023/01/01 03:11:03;;;;;;;9.90;3.63;;;13.60;99.90;;;;;;5071155;28;20044;-68
2023/01/01 03:13:34;;;;;;;14.13;3.72;;;13.60;99.90;;;;;;5070978;28;20040;-68
2023/01/01 03:16:15;;;;;;;8.30;3.45;;;13.70;99.90;;;;;;5071094;28;20094;-68
2023/01/01 03:19:09;;;;;;;9.90;3.08;;;13.70;99.90;;;;;;5071254;28;20441;-69
2023/01/01 03:21:58;;;;;;;12.57;3.40;;;13.90;99.90;;;;;;5071206;28;20707;-68
2023/01/01 03:24:45;;;;;;;10.77;2.75;;;13.80;99.90;;;;;;5030544;28;20127;-68
2023/01/01 03:27:22;;;;;;;10.60;2.75;;;13.90;99.90;;;;;;5032672;28;20049;-68
2023/01/01 03:29:51;;;;;;;10.45;2.60;;;14.00;99.90;;;;;;5049678;28;20132;-68
2023/01/01 03:32:58;;;;;;;7.40;2.60;;;14.00;99.90;;;;;;5016664;28;20434;-68
2023/01/01 03:35:09;;;;;;;6.82;2.88;;;13.90;99.90;;;;;;5033173;28;20044;-68
2023/01/01 03:37:35;;;;;;;8.40;2.78;;;13.90;99.90;;;;;;5033108;28;20072;-69
2023/01/01 03:40:04;;;;;;;8.02;2.50;;;13.90;99.90;;;;;;5032625;28;20072;-68
2023/01/01 03:42:40;;;;;;;8.75;2.22;;;14.00;99.90;;;;;;5015609;28;20049;-68
2023/01/01 03:45:11;;;;;;;11.20;3.10;;;13.90;99.90;;;;;;5032696;28;20040;-68
2023/01/01 03:47:37;;;;;;;9.23;2.37;;;14.00;99.90;;;;;;5032511;28;20052;-68
2023/01/01 03:50:04;;;;;;;6.93;2.40;;;14.00;99.90;;;;;;5032511;28;20135;-68
2023/01/01 03:52:38;;;;;;;8.07;2.30;;;14.00;99.90;;;;;;5032305;28;20080;-68
2023/01/01 03:55:07;;;;;;;8.77;2.85;;;14.00;99.90;;;;;;5032541;28;20189;-68
2023/01/01 03:57:45;;;;;;;8.07;2.03;;;14.00;99.90;;;;;;5032415;28;20041;-68
2023/01/01 04:00:19;;;;;;;11.50;3.13;;;13.90;99.90;;;;;;5016180;28;20542;-69
2023/01/01 04:03:06;;;;;;;7.05;2.28;;;13.90;99.90;;;;;;5070160;28;20051;-68
2023/01/01 04:05:36;;;;;;;5.20;2.08;;;13.90;99.90;;;;;;5070162;28;20123;-68
2023/01/01 04:08:02;;;;;;;11.18;2.50;;;13.90;99.90;;;;;;5069912;28;20041;-69
2023/01/01 04:10:31;;;;;;;9.10;2.40;;;13.90;99.90;;;;;;5069743;28;20033;-68
2023/01/01 04:12:57;;;;;;;8.25;2.85;;;13.90;99.90;;;;;;5066389;28;20102;-68
2023/01/01 04:15:26;;;;;;;9.63;3.28;;;13.90;99.90;;;;;;5069461;28;20450;-68
2023/01/01 04:17:53;;;;;;;5.75;2.25;;;13.80;99.90;;;;;;5052574;28;20036;-68
2023/01/01 04:20:20;;;;;;;9.25;2.22;;;13.80;99.90;;;;;;5069582;28;20518;-68
2023/01/01 04:22:45;;;;;;;6.10;2.00;;;13.80;99.90;;;;;;5069394;28;20487;-69
2023/01/01 04:25:12;;;;;;;8.57;2.95;;;13.70;99.90;;;;;;5069207;28;20173;-68
2023/01/01 04:27:39;;;;;;;10.38;2.25;;;13.70;99.90;;;;;;5069156;28;20044;-68
2023/01/01 04:30:07;;;;;;;8.60;2.13;;;13.70;99.90;;;;;;5052704;28;20049;-68
2023/01/01 04:32:33;;;;;;;10.63;2.33;;;13.70;99.90;;;;;;5069162;28;20040;-68
2023/01/01 04:34:59;;;;;;;7.82;1.98;;;13.70;99.90;;;;;;5052656;28;20896;-69
2023/01/01 04:37:25;;;;;;;8.70;2.30;;;13.70;99.90;;;;;;5069287;28;20045;-69
2023/01/01 04:39:51;;;;;;;8.93;2.00;;;13.70;99.90;;;;;;5069288;28;20135;-68
2023/01/01 04:42:16;;;;;;;7.97;2.15;;;13.70;99.90;;;;;;5069519;28;20550;-68
2023/01/01 04:44:42;;;;;;;10.63;2.50;;;13.70;99.90;;;;;;5068526;28;20041;-69
2023/01/01 04:47:08;;;;;;;8.02;1.90;;;13.70;99.90;;;;;;5069648;28;20043;-68
2023/01/01 04:49:33;;;;;;;5.00;1.77;;;13.60;99.90;;;;;;5053071;28;20052;-68
2023/01/01 04:51:59;;;;;;;6.20;1.95;;;13.60;99.90;;;;;;5069010;28;20060;-68
2023/01/01 04:54:25;;;;;;;7.22;1.60;;;13.60;99.90;;;;;;5052323;28;20047;-69
2023/01/01 04:56:50;;;;;;;10.95;2.83;;;13.60;99.90;;;;;;5069099;28;20095;-69
2023/01/01 04:59:16;;;;;;;7.68;2.17;;;13.50;99.90;;;;;;5052634;28;20041;-69
2023/01/01 05:01:42;;;;;;;8.27;1.60;;;13.50;99.90;;;;;;5069156;28;20050;-69
2023/01/01 05:04:12;;;;;;;5.32;1.60;;;13.50;99.90;;;;;;5069105;28;20440;-68
2023/01/01 05:06:37;;;;;;;8.27;1.38;;;13.50;99.90;;;;;;5069274;28;20044;-69
2023/01/01 05:09:03;;;;;;;5.63;1.70;;;13.50;99.90;;;;;;5068888;28;20497;-69
2023/01/01 05:11:29;;;;;;;6.22;1.50;;;13.40;99.90;;;;;;5052910;28;20505;-69
2023/01/01 05:13:58;;;;;;;7.13;1.50;;;13.30;99.90;;;;;;5069014;28;20032;-68
2023/01/01 05:16:26;;;;;;;10.95;2.15;;;13.40;99.90;;;;;;5069129;28;20040;-68
2023/01/01 05:18:52;;;;;;;10.38;3.63;;;13.40;99.90;;;;;;5052421;28;20060;-68
2023/01/01 05:21:21;;;;;;;8.80;1.50;;;13.30;99.90;;;;;;5069135;28;20443;-69
2023/01/01 05:23:47;;;;;;;6.68;1.50;;;13.30;99.90;;;;;;5068973;28;20032;-68
2023/01/01 05:26:18;;;;;;;5.70;1.58;;;13.30;99.90;;;;;;5069183;28;20548;-69
2023/01/01 05:28:45;;;;;;;8.63;1.65;;;13.30;99.90;;;;;;5068872;28;20044;-69
2023/01/01 05:31:17;;;;;;;5.68;1.75;;;13.20;99.90;;;;;;5051986;28;20450;-69
2023/01/01 05:33:43;;;;;;;3.97;1.10;;;13.20;99.90;;;;;;5052326;28;20040;-69
2023/01/01 05:36:14;;;;;;;5.47;1.50;;;13.10;99.90;;;;;;5068630;28;20051;-69
2023/01/01 05:38:40;;;;;;;6.90;1.45;;;13.10;99.90;;;;;;5069050;28;20115;-69
2023/01/01 05:41:07;;;;;;;6.28;2.05;;;13.00;99.90;;;;;;5068871;28;20114;-69
2023/01/01 05:43:34;;;;;;;7.97;1.35;;;13.00;99.90;;;;;;5069092;28;20044;-68
2023/01/01 05:46:09;;;;;;;5.22;1.60;;;13.00;99.90;;;;;;5068787;28;20053;-69
2023/01/01 05:48:35;;;;;;;5.40;1.10;;;13.00;99.90;;;;;;5051973;28;20090;-69
2023/01/01 05:51:15;;;;;;;4.90;1.10;;;12.90;99.90;;;;;;5068519;28;20057;-69
2023/01/01 05:53:43;;;;;;;5.70;1.20;;;12.90;99.90;;;;;;5069179;28;20044;-68
2023/01/01 05:56:09;;;;;;;6.38;1.13;;;12.90;99.90;;;;;;5068644;28;20403;-69
2023/01/01 05:58:35;;;;;;;6.47;1.58;;;12.80;99.90;;;;;;5068763;28;20064;-68
2023/01/01 06:01:25;;;;;;;5.57;1.65;;;12.80;99.90;;;;;;5068780;28;20083;-69
2023/01/01 06:03:52;;;;;;;4.63;1.55;;;12.70;99.90;;;;;;5009192;28;20144;-69
2023/01/01 06:06:20;;;;;;;3.20;0.98;;;12.70;99.90;;;;;;4994066;28;20056;-69
2023/01/01 06:08:50;;;;;;;4.80;1.40;;;12.70;99.90;;;;;;5011367;28;20081;-69
2023/01/01 06:11:17;;;;;;;5.65;1.30;;;12.60;99.90;;;;;;5014084;28;20060;-68
2023/01/01 06:13:43;;;;;;;4.10;1.00;;;12.60;99.90;;;;;;4996630;28;20037;-69
2023/01/01 06:16:09;;;;;;;4.63;1.30;;;12.50;99.90;;;;;;5013954;28;20551;-69
2023/01/01 06:18:35;;;;;;;6.18;1.27;;;12.50;99.90;;;;;;5014033;28;20088;-69
2023/01/01 06:21:08;;;;;;;5.03;0.93;;;12.50;99.90;;;;;;5014261;28;20413;-69
2023/01/01 06:23:33;;;;;;;4.90;0.98;;;12.50;99.90;;;;;;5014192;28;20127;-69
2023/01/01 06:26:15;;;;;;;7.00;1.50;;;12.50;99.90;;;;;;5014197;28;20121;-69
2023/01/01 06:28:42;;;;;;;3.78;1.02;;;12.50;99.90;;;;;;5014138;28;20053;-69
2023/01/01 06:31:10;;;;;;;7.43;1.30;;;12.50;99.90;;;;;;5013857;28;20516;-69
2023/01/01 06:33:36;;;;;;;6.03;1.48;;;12.40;99.90;;;;;;5013770;28;20064;-69
2023/01/01 06:36:04;;;;;;;6.88;1.38;;;12.40;99.90;;;;;;5029881;28;20120;-69
2023/01/01 06:38:34;;;;;;;4.50;1.50;;;12.30;99.90;;;;;;5014433;28;20033;-69
2023/01/01 06:41:03;;;;;;;7.13;1.85;;;12.30;99.90;;;;;;5042399;28;20059;-69
2023/01/01 06:43:30;;;;;;;9.88;1.85;;;12.30;99.90;;;;;;5054978;28;20044;-69
2023/01/01 06:46:01;;;;;;;5.25;1.30;;;12.30;99.90;;;;;;5071882;28;20051;-69
2023/01/01 06:48:29;;;;;;;7.43;1.40;;;12.30;99.90;;;;;;5071915;28;20881;-68
2023/01/01 06:50:55;;;;;;;10.95;1.90;;;12.30;99.90;;;;;;5071502;28;20055;-69
2023/01/01 06:53:26;;;;;;;6.97;1.38;;;12.30;99.90;;;;;;5071337;28;20057;-69
2023/01/01 06:55:52;;;;;;;9.38;1.60;;;12.30;99.90;;;;;;5055015;28;20093;-69
2023/01/01 06:58:18;;;;;;;11.75;2.55;;;12.20;99.90;;;;;;5071250;28;20050;-69
2023/01/01 07:00:43;;;;;;;5.55;1.58;;;12.20;99.90;;;;;;5054818;28;20457;-69
2023/01/01 07:03:10;;;;;;;7.13;1.65;;;12.20;99.90;;;;;;5071406;28;20036;-68
2023/01/01 07:05:35;;;;;;;7.82;1.40;;;12.10;99.90;;;;;;5068718;28;20426;-68
2023/01/01 07:08:02;;;;;;;8.50;1.80;;;12.10;99.90;;;;;;5071367;28;20536;-68
2023/01/01 07:10:27;;;;;;;7.65;1.75;;;12.00;99.90;;;;;;5071019;28;20044;-68
2023/01/01 07:12:53;;;;;;;6.40;1.52;;;12.10;99.90;;;;;;5054572;28;20037;-69
2023/01/01 07:15:19;;;;;;;7.32;1.45;;;12.10;99.90;;;;;;5070918;28;20041;-68
2023/01/01 07:17:44;;;;;;;5.82;1.70;;;12.10;99.90;;;;;;5070985;28;20028;-68
2023/01/01 07:20:10;;;;;;;8.63;1.50;;;12.10;99.90;;;;;;5070636;28;20052;-68
2023/01/01 07:22:38;;;;;;;6.13;1.40;;;12.10;99.90;;;;;;5070584;28;20032;-68
2023/01/01 07:25:04;;;;;;;7.68;1.55;;;12.10;99.90;;;;;;5070936;28;20048;-68
2023/01/01 07:27:30;;;;;;;8.93;1.83;;;12.10;99.90;;;;;;5070676;28;20047;-68
2023/01/01 07:29:55;;;;;;;8.25;1.40;;;12.00;99.90;;;;;;5070815;28;20041;-68
2023/01/01 07:32:21;;;;;;;11.05;1.95;;;12.00;99.90;;;;;;5070855;28;20059;-68
2023/01/01 07:34:46;;;;;;;7.75;1.80;;;12.00;99.90;;;;;;5070854;28;20040;-68
2023/01/01 07:37:12;;;;;;;7.65;1.52;;;11.90;99.90;;;;;;5054105;28;20040;-69
2023/01/01 07:39:37;;;;;;;7.10;1.38;;;11.90;99.90;;;;;;5070476;28;20050;-68
2023/01/01 07:42:03;;;;;;;9.27;1.98;;;11.90;99.90;;;;;;5070955;28;20430;-68
2023/01/01 07:44:29;;;;;;;6.60;1.48;;;11.90;99.90;;;;;;5070567;28;20102;-68
2023/01/01 07:47:19;;;;;;;7.68;1.30;;;11.90;99.90;;;;;;5070673;28;20139;-68
2023/01/01 07:49:45;;;;;;;7.80;1.23;;;11.80;99.90;;;;;;5070511;28;20510;-68
2023/01/01 07:52:11;;;;;;;8.73;1.23;;;11.80;99.90;;;;;;5070204;28;20048;-68
2023/01/01 07:54:36;;;;;;;6.50;1.33;;;11.80;99.90;;;;;;5068205;28;20040;-68
2023/01/01 07:57:02;;;;;;;9.35;1.85;;;11.80;99.90;;;;;;5068994;28;20052;-68
2023/01/01 07:59:27;;;;;;;6.43;1.60;;;11.80;99.90;;;;;;5069915;28;20029;-68
2023/01/01 08:01:53;;;;;;;6.05;1.15;;;11.80;99.90;;;;;;5053245;28;20052;-68
2023/01/01 08:04:19;;;;;;;10.77;1.48;;;11.80;99.90;;;;;;5053320;28;20135;-70
2023/01/01 08:06:44;;;;;;;7.43;1.27;;;11.80;99.90;;;;;;5069400;28;20177;-69
2023/01/01 08:09:10;;;;;;;11.40;2.10;;;11.70;99.90;;;;;;5069642;28;20033;-69
2023/01/01 08:11:36;;;;;;;7.13;1.40;;;11.70;99.90;;;;;;5069365;28;20045;-69
2023/01/01 08:14:01;;;;;;;7.38;1.23;;;11.70;99.90;;;;;;5068353;28;20487;-68
2023/01/01 08:16:27;;;;;;;8.52;1.67;;;11.70;99.90;;;;;;5069580;28;20033;-69
2023/01/01 08:18:53;;;;;;;8.10;1.42;;;11.70;99.90;;;;;;5069400;28;20548;-69
2023/01/01 08:21:18;;;;;;;7.97;1.70;;;11.70;99.90;;;;;;5069631;28;20072;-69
2023/01/01 08:23:44;;;;;;;8.27;1.40;;;11.70;99.90;;;;;;5069453;28;20093;-68
2023/01/01 08:26:15;;;;;;;9.73;1.50;;;11.70;99.90;;;;;;5068705;28;20137;-69
2023/01/01 08:28:42;;;;;;;10.63;1.60;;;11.60;99.90;;;;;;5053063;28;20049;-69
2023/01/01 08:31:08;;;;;;;5.10;1.08;;;11.60;99.90;;;;;;5052313;28;20105;-69
2023/01/01 08:33:33;;;;;;;8.13;1.90;;;11.60;99.90;;;;;;5069436;28;20469;-69
2023/01/01 08:35:59;;;;;;;7.13;1.40;;;11.60;99.90;;;;;;5070275;28;20155;-69
2023/01/01 08:38:28;;;;;;;9.40;1.60;;;11.60;99.90;;;;;;5069877;28;20060;-70
2023/01/01 08:40:54;;;;;;;7.50;1.58;;;11.60;99.90;;;;;;5069688;28;20128;-70
2023/01/01 08:43:19;;;;;;;13.20;2.80;;;11.60;99.90;;;;;;5070597;28;20205;-70
2023/01/01 08:45:45;;;;;;;9.88;1.90;;;11.60;99.90;;;;;;5069407;28;20376;-68
2023/01/01 08:48:11;;;;;;;9.88;1.85;;;11.50;99.90;;;;;;5069341;28;20051;-68
2023/01/01 08:50:36;;;;;;;6.72;1.40;;;11.50;99.90;;;;;;5070676;28;20506;-68
2023/01/01 08:53:03;;;;;;;8.15;1.58;;;11.50;99.90;;;;;;5069666;28;20473;-68
2023/01/01 08:55:30;;;;;;;8.27;1.70;;;11.50;99.90;;;;;;5069517;28;20040;-67
2023/01/01 08:57:55;;;;;;;6.38;2.28;;;11.50;99.90;;;;;;5069464;28;20048;-68
2023/01/01 09:00:21;;;;;;;7.35;1.27;;;11.50;99.90;;;;;;5069405;28;20094;-68
2023/01/01 09:02:47;;;;;;;9.23;1.60;;;11.50;99.90;;;;;;5052846;28;20045;-67
2023/01/01 09:05:12;;;;;;;7.45;1.45;;;11.50;99.90;;;;;;5069359;28;20044;-68
2023/01/01 09:07:38;;;;;;;10.05;1.75;;;11.40;99.90;;;;;;5069381;28;20029;-68
2023/01/01 09:10:04;;;;;;;10.35;1.40;;;11.40;99.90;;;;;;5069262;28;20040;-68
2023/01/01 09:12:30;;;;;;;8.63;1.65;;;11.40;99.90;;;;;;5052639;28;20105;-68
2023/01/01 09:14:55;;;;;;;10.63;1.50;;;11.40;99.90;;;;;;5069252;28;20033;-68
2023/01/01 09:17:21;;;;;;;9.80;1.65;;;11.40;99.90;;;;;;5069574;28;20084;-68
2023/01/01 09:19:47;;;;;;;10.88;1.60;;;11.40;99.90;;;;;;5069339;28;20072;-68
2023/01/01 09:22:12;;;;;;;8.82;1.70;;;11.40;99.90;;;;;;5070421;28;20055;-68
2023/01/01 09:24:38;;;;;;;10.75;1.83;;;11.40;99.90;;;;;;5069184;28;20032;-67
2023/01/01 09:27:04;;;;;;;10.30;1.75;;;11.40;99.90;;;;;;5068938;28;20082;-68
2023/01/01 09:29:29;;;;;;;14.68;2.05;;;11.40;99.90;;;;;;5069038;28;20039;-68
2023/01/01 09:31:55;;;;;;;10.43;1.75;;;11.50;99.90;;;;;;5069057;28;20395;-68
2023/01/01 09:34:21;;;;;;;7.88;1.75;;;11.40;99.90;;;;;;5052413;28;20521;-68
2023/01/01 09:36:46;;;;;;;12.00;2.25;;;11.40;99.90;;;;;;5069340;28;20163;-69
2023/01/01 09:39:14;;;;;;;9.20;1.58;;;11.50;99.90;;;;;;5052396;28;20141;-69
2023/01/01 09:41:58;;;;;;;9.48;1.40;;;11.50;99.90;;;;;;5069035;28;20040;-67
2023/01/01 09:45:01;;;;;;;7.78;1.27;;;11.50;99.90;;;;;;5071980;28;20407;-68
2023/01/01 09:47:40;;;;;;;10.23;2.08;;;11.50;99.90;;;;;;5068534;28;20044;-68
2023/01/01 09:50:31;;;;;;;8.05;1.50;;;11.50;99.90;;;;;;5072582;28;20040;-68
2023/01/01 09:52:59;;;;;;;9.25;1.52;;;11.60;99.90;;;;;;5072589;28;20407;-69
2023/01/01 09:55:47;;;;;;;8.55;2.13;;;11.60;99.90;;;;;;5072052;28;20135;-69
2023/01/01 09:58:14;;;;;;;14.48;2.05;;;11.60;99.90;;;;;;5072390;28;20036;-68
2023/01/01 10:00:43;;;;;;;7.35;1.48;;;11.60;99.90;;;;;;5055490;28;20152;-68
2023/01/01 10:03:27;;;;;;;12.10;2.03;;;11.60;99.90;;;;;;5072284;28;20053;-68
2023/01/01 10:06:08;;;;;;;13.15;1.60;;;11.60;99.90;;;;;;5055292;28;20036;-68
2023/01/01 10:08:36;;;;;;;8.27;1.77;;;11.60;99.90;;;;;;5071837;28;20040;-67
2023/01/01 10:11:14;;;;;;;10.18;1.70;;;11.60;99.90;;;;;;5071927;28;20044;-67
2023/01/01 10:13:45;;;;;;;12.05;2.20;;;11.60;99.90;;;;;;5071787;28;20048;-68
2023/01/01 10:16:27;;;;;;;7.38;1.35;;;11.60;99.90;;;;;;5071948;28;20041;-69
2023/01/01 10:18:57;;;;;;;10.65;1.50;;;11.60;99.90;;;;;;5072033;28;20455;-68
2023/01/01 10:21:30;;;;;;;14.07;1.88;;;11.60;99.90;;;;;;5072125;28;20044;-68
2023/01/01 10:24:21;;;;;;;12.07;1.83;;;11.70;99.90;;;;;;5072249;28;20105;-68
2023/01/01 10:26:48;;;;;;;8.40;1.50;;;11.80;99.90;;;;;;5072397;28;20502;-68
2023/01/01 10:29:21;;;;;;;7.20;1.27;;;12.00;99.90;;;;;;5073410;28;20564;-68
2023/01/01 10:31:47;;;;;;;8.82;1.45;;;12.20;99.90;;;;;;5072023;28;20036;-68
2023/01/01 10:34:27;;;;;;;8.95;1.38;;;12.30;99.90;;;;;;5055188;28;20044;-69
2023/01/01 10:36:55;;;;;;;7.22;1.27;;;12.30;99.90;;;;;;5072253;28;20036;-67
2023/01/01 10:39:21;;;;;;;8.77;1.70;;;12.30;99.90;;;;;;5072135;28;20048;-68
2023/01/01 10:41:48;;;;;;;8.85;1.42;;;12.30;99.90;;;;;;5063605;28;20040;-68
2023/01/01 10:44:29;;;;;;;7.13;1.70;;;12.30;99.90;;;;;;5071783;28;20067;-68
2023/01/01 10:47:19;;;;;;;8.00;1.52;;;12.30;99.90;;;;;;5071676;28;20115;-67
2023/01/01 10:49:55;;;;;;;8.10;1.75;;;12.30;99.90;;;;;;5060747;28;20052;-68
2023/01/01 10:52:26;;;;;;;8.50;1.30;;;12.30;99.90;;;;;;5071312;28;20059;-68
2023/01/01 10:54:52;;;;;;;9.93;1.90;;;12.30;99.90;;;;;;5070777;28;20029;-68
2023/01/01 10:57:30;;;;;;;9.77;1.70;;;12.40;99.90;;;;;;5071735;28;20536;-68
2023/01/01 11:00:25;;;;;;;11.43;2.83;;;12.40;99.90;;;;;;5071482;28;20052;-68
2023/01/01 11:03:20;;;;;;;11.85;1.50;;;12.40;99.90;;;;;;5071407;28;20097;-68
2023/01/01 11:06:20;;;;;;;8.70;1.40;;;12.40;99.90;;;;;;5071132;28;20064;-68
2023/01/01 11:08:57;;;;;;;9.93;1.45;;;12.40;99.90;;;;;;5071487;28;20518;-67
2023/01/01 11:11:28;;;;;;;11.82;1.80;;;12.40;99.90;;;;;;5071167;28;20049;-68
2023/01/01 11:14:03;;;;;;;11.80;2.05;;;12.40;99.90;;;;;;5071424;28;20522;-68
2023/01/01 11:16:29;;;;;;;12.77;2.85;;;12.40;99.90;;;;;;5071111;28;20044;-68
2023/01/01 11:19:04;;;;;;;12.18;1.88;;;12.30;99.90;;;;;;5062830;28;20036;-67
2023/01/01 11:21:30;;;;;;;9.50;1.73;;;12.30;99.90;;;;;;5071348;28;20467;-68
2023/01/01 11:24:29;;;;;;;7.82;1.65;;;12.30;99.90;;;;;;5071322;28;20463;-68
2023/01/01 11:27:24;;;;;;;9.63;1.83;;;12.40;99.90;;;;;;5013340;28;20049;-68
2023/01/01 11:29:53;;;;;;;7.55;1.77;;;12.40;99.90;;;;;;4935527;29;20051;-68
2023/01/01 11:32:23;;;;;;;10.48;2.28;;;12.40;99.90;;;;;;4936226;29;20047;-68
2023/01/01 11:34:59;;;;;;;9.93;2.22;;;12.40;99.90;;;;;;4935555;29;20434;-68
2023/01/01 11:37:26;;;;;;;8.63;1.35;;;12.40;99.90;;;;;;4933410;29;20066;-68
2023/01/01 11:39:55;;;;;;;13.80;1.77;;;12.30;99.90;;;;;;4935208;29;20418;-68
2023/01/01 11:42:26;;;;;;;8.75;1.70;;;12.40;99.90;;;;;;4935451;29;20133;-68
2023/01/01 11:44:57;;;;;;;10.15;1.55;;;12.40;99.90;;;;;;4934843;29;20050;-68
2023/01/01 11:47:22;;;;;;;14.40;3.17;;;12.40;99.90;;;;;;4951427;28;20141;-68
2023/01/01 11:49:57;;;;;;;10.63;1.77;;;12.40;99.90;;;;;;4934876;29;20088;-68
2023/01/01 11:52:53;;;;;;;11.25;1.80;;;12.50;99.90;;;;;;4935057;29;20062;-68
2023/01/01 11:55:32;;;;;;;11.52;2.00;;;12.60;99.90;;;;;;4933307;29;20091;-68
2023/01/01 11:57:58;;;;;;;12.07;2.40;;;12.70;99.90;;;;;;4935122;29;20455;-68
2023/01/01 12:00:24;;;;;;;9.57;2.28;;;13.00;99.90;;;;;;4937623;29;20079;-68
2023/01/01 12:02:58;;;;;;;12.65;1.75;;;13.00;99.90;;;;;;4966670;28;20054;-68
2023/01/01 12:05:36;;;;;;;10.27;1.83;;;13.20;99.90;;;;;;5002477;28;20047;-68
2023/01/01 12:08:07;;;;;;;13.65;1.83;;;13.10;99.90;;;;;;5068269;28;20047;-68
2023/01/01 12:11:03;;;;;;;11.38;1.85;;;12.80;99.90;;;;;;5053194;28;20052;-68
2023/01/01 12:13:36;;;;;;;9.15;1.80;;;12.70;99.90;;;;;;4996254;28;20411;-68
2023/01/01 12:16:11;;;;;;;7.80;1.50;;;12.50;99.90;;;;;;4996276;28;20389;-67
2023/01/01 12:18:36;;;;;;;11.35;2.25;;;12.50;99.90;;;;;;4996030;28;20045;-68
2023/01/01 12:21:14;;;;;;;8.02;1.60;;;12.40;99.90;;;;;;5012363;28;20103;-68
2023/01/01 12:23:40;;;;;;;8.00;1.50;;;12.30;99.90;;;;;;5012655;28;20041;-68
2023/01/01 12:26:18;;;;;;;11.05;1.95;;;12.30;99.90;;;;;;5012259;28;20048;-68
2023/01/01 12:29:05;;;;;;;11.88;1.60;;;12.30;99.90;;;;;;4995728;28;20053;-68
2023/01/01 12:31:41;;;;;;;11.98;1.83;;;12.20;99.90;;;;;;4995818;28;20057;-68
2023/01/01 12:34:17;;;;;;;10.65;1.85;;;12.20;99.90;;;;;;4995084;28;20547;-69
2023/01/01 12:37:24;;;;;;;10.85;1.70;;;12.20;99.90;;;;;;5010650;28;20057;-68
2023/01/01 12:40:02;;;;;;;13.27;1.95;;;12.20;99.90;;;;;;5004685;28;20065;-68
2023/01/01 12:42:53;;;;;;;16.45;2.92;;;12.10;99.90;;;;;;5016481;28;20036;-68
2023/01/01 12:45:37;;;;;;;12.82;1.90;;;12.10;99.90;;;;;;4943095;28;20047;-69
2023/01/01 12:48:20;;;;;;;11.40;1.73;;;12.10;99.90;;;;;;4952075;28;20100;-69
2023/01/01 12:50:51;;;;;;;12.18;2.25;;;12.10;99.90;;;;;;4984324;28;20540;-69
2023/01/01 12:53:43;;;;;;;11.13;2.58;;;12.10;99.90;;;;;;5011208;28;20524;-66
2023/01/01 12:56:37;;;;;;;13.27;2.53;;;12.00;99.90;;;;;;5027007;28;20073;-66
2023/01/01 12:59:15;;;;;;;12.88;1.85;;;12.00;99.90;;;;;;5027105;28;20088;-65
2023/01/01 13:01:42;;;;;;;17.15;2.85;;;12.00;99.90;;;;;;5028926;28;20079;-66
2023/01/01 13:04:14;;;;;;;10.65;2.28;;;11.90;99.90;;;;;;5026460;28;20064;-65
2023/01/01 13:07:02;;;;;;;10.90;1.98;;;11.90;99.90;;;;;;5023047;28;20041;-65